Aviation Digital Data Service (ADDS)

Output produced by METARs form (1304 UTC 21 May 2018)
found at http://aviationweather.gov/adds/metars/
 
KSGR 211253Z 08004KT 10SM CLR 24/22 A2998 RMK AO2 SLP154 T02440217